Terminal Aerodrome Forecast
Issued by NWS

Home | Current Version | Previous Version | Text Only | Print | Product List | Glossary On
Versions: 1 2 3 4 5 6 7 8 9 10 11 12 13 14 15 16
000
FTUS46 KLOX 192300
TAFLGB
TAF
KLGB 192339Z 2000/2024 29009KT P6SM SKC
     FM200400 VRB03KT P6SM SCT020
     FM200700 VRB03KT P6SM OVC015
     FM201300 VRB03KT P6SM OVC020
     FM201800 21004KT P6SM BKN025
     FM202000 20009KT P6SM SKC=

USA.gov is the U.S. government's official web portal to all federal, state and local government web resources and services.